Time;durP1;ratioP1;P1;durP2;ratioP2;P2;SDS_P1;SDS_P2;PMS_P1;PMS_P2;Temp;Humidity;BMP_temperature;BMP_pressure;BME280_temperature;BME280_humidity;BME280_pressure;Samples;Min_cycle;Max_cycle;Signal;HPM_P1;HPM_P2
2022/09/25 00:00:53;;;;;;;;;6.00;6.00;;;;;16.94;59.96;101035.22;4911684;28;45443;-67
2022/09/25 00:03:19;;;;;;;;;6.50;5.00;;;;;16.86;60.60;101045.53;4889375;29;45526;-67
2022/09/25 00:05:46;;;;;;;;;5.00;5.00;;;;;16.83;60.50;101043.81;4902226;29;45428;-66
2022/09/25 00:08:13;;;;;;;;;5.00;5.00;;;;;16.83;60.58;101042.97;4902376;29;45326;-67
2022/09/25 00:10:40;;;;;;;;;6.00;6.00;;;;;16.84;60.62;101050.13;4901030;29;46084;-67
2022/09/25 00:13:06;;;;;;;;;5.75;4.50;;;;;16.83;60.58;101051.06;4902205;29;45684;-67
2022/09/25 00:15:31;;;;;;;;;8.25;6.00;;;;;16.81;60.64;101058.38;4902297;29;45467;-67
2022/09/25 00:17:56;;;;;;;;;8.00;6.25;;;;;16.76;60.74;101044.25;4902416;29;45543;-67
2022/09/25 00:20:22;;;;;;;;;7.00;7.00;;;;;16.80;60.53;101053.91;4900765;29;45966;-67
2022/09/25 00:22:48;;;;;;;;;8.00;7.75;;;;;16.76;60.75;101045.13;4900540;29;45475;-67
2022/09/25 00:25:14;;;;;;;;;5.75;5.75;;;;;16.76;60.50;101053.22;4902252;29;45255;-67
2022/09/25 00:27:41;;;;;;;;;6.00;6.00;;;;;16.80;60.59;101062.88;4902183;29;45329;-67
2022/09/25 00:30:09;;;;;;;;;7.50;5.50;;;;;16.83;60.51;101061.84;4900214;29;46429;-67
2022/09/25 00:32:34;;;;;;;;;5.00;5.00;;;;;16.81;60.84;101053.84;4902128;29;45330;-67
2022/09/25 00:35:00;;;;;;;;;6.75;6.75;;;;;16.81;60.05;101048.44;4898446;29;45806;-67
2022/09/25 00:37:27;;;;;;;;;5.25;5.25;;;;;16.79;60.47;101052.16;4901704;29;45361;-67
2022/09/25 00:39:53;;;;;;;;;3.75;3.50;;;;;16.78;60.47;101064.78;4901034;29;46252;-67
2022/09/25 00:42:20;;;;;;;;;4.00;4.00;;;;;16.78;60.77;101061.22;4901817;29;45342;-67
2022/09/25 00:44:57;;;;;;;;;4.00;4.00;;;;;16.73;60.91;101066.84;4901841;29;45411;-67
2022/09/25 00:47:35;;;;;;;;;5.00;5.00;;;;;16.71;60.87;101059.81;4902026;29;45302;-67
2022/09/25 00:50:03;;;;;;;;;4.00;3.75;;;;;16.68;60.55;101050.91;4900929;29;45475;-67
2022/09/25 00:52:30;;;;;;;;;5.00;4.75;;;;;16.66;60.91;101049.25;4901551;29;45565;-67
2022/09/25 00:55:04;;;;;;;;;3.00;3.00;;;;;16.69;60.78;101043.72;4901993;29;45374;-67
2022/09/25 00:57:31;;;;;;;;;4.00;4.00;;;;;16.68;60.63;101044.66;4901903;29;45526;-67
2022/09/25 01:00:02;;;;;;;;;5.00;5.00;;;;;16.66;61.00;101042.03;4902723;28;45360;-67
2022/09/25 01:02:31;;;;;;;;;6.50;5.25;;;;;16.73;60.75;101047.13;4884682;29;45698;-67
2022/09/25 01:05:01;;;;;;;;;5.75;4.25;;;;;16.70;60.96;101042.75;4901327;29;45380;-67
2022/09/25 01:07:28;;;;;;;;;6.00;5.00;;;;;16.66;60.79;101044.72;4901515;29;45511;-67
2022/09/25 01:09:58;;;;;;;;;5.00;5.00;;;;;16.67;60.96;101046.50;4899514;29;45376;-67
2022/09/25 01:12:24;;;;;;;;;10.00;7.00;;;;;16.66;61.21;101046.56;4900499;29;45650;-67
2022/09/25 01:14:49;;;;;;;;;8.25;7.25;;;;;16.65;61.10;101047.50;4901984;29;45407;-67
2022/09/25 01:17:46;;;;;;;;;4.50;4.50;;;;;16.68;61.21;101044.66;4904773;29;45455;-67
2022/09/25 01:20:32;;;;;;;;;6.25;6.25;;;;;16.67;61.14;101051.88;4896395;29;45546;-67
2022/09/25 01:23:29;;;;;;;;;7.00;7.00;;;;;16.64;61.00;101057.44;4904369;29;45281;-67
2022/09/25 01:26:03;;;;;;;;;7.00;5.00;;;;;16.61;61.27;101049.50;4904756;29;45320;-67
2022/09/25 01:28:53;;;;;;;;;7.25;4.50;;;;;16.60;60.92;101050.44;4904609;29;45335;-67
2022/09/25 01:31:41;;;;;;;;;5.25;5.00;;;;;16.54;60.95;101056.19;4904026;29;45482;-67
2022/09/25 01:34:20;;;;;;;;;5.25;5.25;;;;;16.53;61.05;101049.03;4903481;29;45509;-67
2022/09/25 01:37:26;;;;;;;;;2.75;2.75;;;;;16.58;61.28;101054.19;4894253;29;45341;-67
2022/09/25 01:40:24;;;;;;;;;4.50;4.50;;;;;16.57;61.25;101047.03;4891940;29;45732;-67
2022/09/25 01:43:32;;;;;;;;;6.50;5.75;;;;;16.55;61.39;101041.72;4890103;29;45964;-67
2022/09/25 01:46:03;;;;;;;;;6.00;5.25;;;;;16.53;61.16;101034.69;4868890;29;45538;-66
2022/09/25 01:48:32;;;;;;;;;7.75;6.50;;;;;16.57;61.21;101038.97;4903710;29;45450;-66
2022/09/25 01:51:09;;;;;;;;;5.00;5.00;;;;;16.57;61.15;101047.03;4904115;29;45671;-67
2022/09/25 01:53:40;;;;;;;;;6.00;6.00;;;;;16.55;61.41;101047.13;4904127;29;45477;-67
2022/09/25 01:56:12;;;;;;;;;5.50;5.00;;;;;16.52;61.42;101030.25;4904392;29;45323;-66
2022/09/25 01:58:42;;;;;;;;;6.25;4.75;;;;;16.45;61.18;101022.47;4903094;29;45357;-67
2022/09/25 02:01:21;;;;;;;;;7.00;6.00;;;;;16.50;61.19;101030.31;4906943;28;45535;-67
2022/09/25 02:03:53;;;;;;;;;7.50;6.00;;;;;16.57;61.36;101044.34;4903727;29;47195;-67
2022/09/25 02:06:20;;;;;;;;;8.00;7.00;;;;;16.55;61.47;101039.03;4903742;29;45441;-67
2022/09/25 02:08:54;;;;;;;;;7.00;6.75;;;;;16.53;61.43;101049.03;4903142;29;45424;-67
2022/09/25 02:11:20;;;;;;;;;7.25;7.25;;;;;16.51;61.22;101050.09;4903925;29;45598;-66
2022/09/25 02:13:54;;;;;;;;;5.00;5.00;;;;;16.52;61.58;101055.34;4892200;29;45516;-67
2022/09/25 02:16:33;;;;;;;;;6.75;6.75;;;;;16.43;61.48;101045.94;4903845;29;45427;-67
2022/09/25 02:21:57;;;;;;;;;8.00;7.00;;;;;16.48;61.57;101045.72;4903549;29;45341;-66
2022/09/25 02:24:46;;;;;;;;;4.50;4.50;;;;;16.47;61.66;101041.25;4903800;29;46279;-67
2022/09/25 02:27:13;;;;;;;;;6.25;6.00;;;;;16.40;61.62;101034.47;4893112;29;45506;-67
2022/09/25 02:29:39;;;;;;;;;7.00;6.00;;;;;16.42;61.72;101043.31;4902582;29;45426;-67
2022/09/25 02:32:08;;;;;;;;;5.00;5.00;;;;;16.44;61.69;101044.13;4903253;29;45381;-67
2022/09/25 02:34:35;;;;;;;;;8.25;7.75;;;;;16.41;61.78;101047.00;4899583;28;46103;-66
2022/09/25 02:37:00;;;;;;;;;7.75;6.25;;;;;16.39;61.76;101035.41;4902726;29;45396;-67
2022/09/25 02:39:29;;;;;;;;;7.75;6.00;;;;;16.28;61.97;101019.81;4901145;29;45387;-67
2022/09/25 02:42:27;;;;;;;;;5.25;5.25;;;;;16.33;61.96;101027.66;4902057;29;45487;-67
2022/09/25 02:45:20;;;;;;;;;5.00;5.00;;;;;16.39;61.99;101040.78;4893319;29;45438;-67
2022/09/25 02:48:22;;;;;;;;;4.75;4.75;;;;;16.38;62.02;101030.97;4891114;29;45606;-67
2022/09/25 02:51:07;;;;;;;;;5.00;4.50;;;;;16.36;61.80;101040.97;4884184;29;45432;-67
2022/09/25 02:53:40;;;;;;;;;4.00;2.50;;;;;16.34;61.64;101032.97;4903337;29;45391;-67
2022/09/25 02:56:28;;;;;;;;;4.75;4.75;;;;;16.42;61.87;101040.63;4886379;29;45988;-67
2022/09/25 02:59:00;;;;;;;;;6.00;6.00;;;;;16.34;61.87;101035.66;4900731;29;46016;-67
2022/09/25 03:01:30;;;;;;;;;6.00;6.00;;;;;16.19;61.71;101013.09;4904359;28;45352;-67
2022/09/25 03:03:58;;;;;;;;;6.50;6.50;;;;;16.28;61.82;101038.66;4896119;29;45388;-67
2022/09/25 03:06:25;;;;;;;;;9.50;6.00;;;;;16.35;61.75;101052.69;4902721;28;45519;-67
2022/09/25 03:08:55;;;;;;;;;4.50;4.50;;;;;16.34;62.19;101056.31;4902218;29;45627;-67
2022/09/25 03:11:23;;;;;;;;;8.00;7.00;;;;;16.05;61.99;101024.53;4902993;29;45534;-67
2022/09/25 03:13:59;;;;;;;;;8.25;6.75;;;;;16.14;62.29;101036.69;4902836;29;45462;-67
2022/09/25 03:16:33;;;;;;;;;4.75;4.75;;;;;16.28;62.20;101069.16;4902919;29;45526;-67
2022/09/25 03:18:59;;;;;;;;;8.75;7.25;;;;;16.17;62.43;101063.47;4900714;29;45787;-66
2022/09/25 03:21:24;;;;;;;;;6.25;6.25;;;;;16.17;62.36;101063.47;4902821;29;45365;-67
2022/09/25 03:23:49;;;;;;;;;8.00;8.00;;;;;16.06;62.47;101039.75;4901748;29;45606;-67
2022/09/25 03:26:15;;;;;;;;;6.00;6.00;;;;;16.11;62.48;101044.91;4902655;29;46317;-67
2022/09/25 03:28:40;;;;;;;;;6.25;6.25;;;;;16.16;62.62;101048.25;4902489;29;47920;-67
2022/09/25 03:31:09;;;;;;;;;7.00;7.00;;;;;16.11;62.45;101031.44;4885770;29;45341;-67
2022/09/25 03:33:37;;;;;;;;;6.25;6.25;;;;;16.09;62.61;101041.44;4901528;29;45537;-67
2022/09/25 03:36:05;;;;;;;;;13.75;11.50;;;;;16.24;62.44;101072.97;4896813;28;45594;-67
2022/09/25 03:38:31;;;;;;;;;10.50;9.00;;;;;16.01;62.63;101052.59;4902503;29;45288;-67
2022/09/25 03:40:56;;;;;;;;;6.00;4.50;;;;;16.13;62.69;101085.25;4902728;29;45366;-67
2022/09/25 03:43:22;;;;;;;;;7.50;6.50;;;;;16.01;62.81;101073.25;4901425;29;45460;-67
2022/09/25 03:45:47;;;;;;;;;7.25;7.25;;;;;16.11;62.66;101085.31;4885137;29;47060;-66
2022/09/25 03:48:12;;;;;;;;;8.50;6.00;;;;;16.07;63.21;101086.41;4902594;29;45329;-67
2022/09/25 03:50:38;;;;;;;;;10.50;7.75;;;;;15.89;63.04;101062.16;4902612;29;45388;-66
2022/09/25 03:53:03;;;;;;;;;7.50;7.00;;;;;16.02;63.09;101078.56;4900671;29;45490;-67
2022/09/25 03:55:29;;;;;;;;;9.50;9.50;;;;;15.98;62.80;101085.03;4902351;29;45428;-67
2022/09/25 03:57:54;;;;;;;;;8.75;8.25;;;;;16.01;63.28;101081.34;4883026;29;45365;-67
2022/09/25 04:00:19;;;;;;;;;7.50;7.00;;;;;15.84;63.08;101048.03;4902433;28;45542;-67
2022/09/25 04:02:45;;;;;;;;;7.75;7.75;;;;;16.11;63.07;101088.00;4901286;29;45636;-67
2022/09/25 04:05:10;;;;;;;;;7.00;6.25;;;;;16.11;63.30;101094.25;4901827;29;45420;-67
2022/09/25 04:07:36;;;;;;;;;11.25;9.00;;;;;16.00;62.95;101069.66;4902139;29;45397;-67
2022/09/25 04:10:02;;;;;;;;;11.75;6.50;;;;;16.01;63.13;101084.88;4900300;29;45303;-67
2022/09/25 04:12:27;;;;;;;;;10.50;9.00;;;;;16.01;63.11;101079.50;4902167;29;45432;-67
2022/09/25 04:14:52;;;;;;;;;10.50;7.50;;;;;16.04;63.10;101097.34;4884658;29;47283;-67
2022/09/25 04:17:18;;;;;;;;;10.25;8.00;;;;;15.93;63.16;101077.19;4902253;29;45458;-67
2022/09/25 04:19:43;;;;;;;;;6.00;6.00;;;;;15.97;63.31;101075.25;4884260;29;45361;-67
2022/09/25 04:22:08;;;;;;;;;8.25;5.50;;;;;16.03;63.25;101091.06;4900877;29;45507;-67
2022/09/25 04:24:49;;;;;;;;;6.75;5.50;;;;;16.07;63.13;101089.09;4901790;29;45452;-66
2022/09/25 04:27:20;;;;;;;;;9.50;8.75;;;;;15.86;63.10;101051.53;4902097;29;45708;-67
2022/09/25 04:29:47;;;;;;;;;8.75;8.75;;;;;15.73;63.07;101048.53;4900964;29;45266;-67
2022/09/25 04:34:58;;;;;;;;;8.25;6.00;;;;;15.95;63.13;101087.00;4901723;29;45353;-67
2022/09/25 04:37:27;;;;;;;;;10.75;9.00;;;;;15.93;63.21;101085.25;4883073;29;45647;-67
2022/09/25 04:39:56;;;;;;;;;6.50;5.50;;;;;15.96;62.94;101078.00;4901076;29;45478;-67
2022/09/25 04:42:23;;;;;;;;;9.25;8.50;;;;;15.90;62.92;101082.75;4884700;29;45500;-67
2022/09/25 04:44:53;;;;;;;;;7.50;6.25;;;;;15.88;63.26;101092.69;4901305;29;46280;-67
2022/09/25 04:47:24;;;;;;;;;7.25;7.00;;;;;15.67;63.19;101056.03;4883640;29;45439;-67
2022/09/25 04:49:50;;;;;;;;;10.50;7.75;;;;;15.92;63.17;101099.69;4901557;29;45395;-67
2022/09/25 04:52:17;;;;;;;;;13.50;9.25;;;;;15.90;63.12;101096.22;4904875;29;45393;-66
2022/09/25 04:54:43;;;;;;;;;7.00;7.00;;;;;15.87;63.09;101093.66;4904851;29;45656;-67
2022/09/25 04:57:12;;;;;;;;;9.50;9.50;;;;;15.98;62.95;101114.66;4903603;28;45337;-66
2022/09/25 04:59:38;;;;;;;;;8.00;8.00;;;;;15.69;63.26;101067.59;4904483;28;45441;-67
2022/09/25 05:02:03;;;;;;;;;12.00;10.25;;;;;15.90;62.95;101106.97;4906231;28;45432;-67
2022/09/25 05:04:29;;;;;;;;;10.00;10.00;;;;;15.90;63.27;101115.06;4901285;28;45576;-66
2022/09/25 05:06:54;;;;;;;;;10.00;10.00;;;;;15.87;62.88;101117.88;4904568;29;45456;-66
2022/09/25 05:09:19;;;;;;;;;10.75;10.00;;;;;15.67;63.52;101083.81;4903398;29;45388;-67
2022/09/25 05:11:46;;;;;;;;;17.25;14.75;;;;;15.81;63.37;101118.19;4904474;29;47451;-66
2022/09/25 05:14:11;;;;;;;;;11.00;11.00;;;;;15.86;63.40;101131.41;4904459;29;45481;-66
2022/09/25 05:16:36;;;;;;;;;12.25;11.00;;;;;15.81;63.20;101120.88;4904515;29;45366;-66
2022/09/25 05:19:02;;;;;;;;;12.50;11.25;;;;;15.71;63.46;101106.94;4903789;29;45431;-67
2022/09/25 05:21:27;;;;;;;;;14.25;12.75;;;;;15.73;63.15;101104.19;4904304;29;45349;-67
2022/09/25 05:23:53;;;;;;;;;15.25;13.25;;;;;15.78;63.12;101121.00;4903499;29;45578;-67
2022/09/25 05:26:22;;;;;;;;;11.25;10.25;;;;;15.77;63.42;101121.06;4886809;29;45734;-67
2022/09/25 05:28:49;;;;;;;;;12.00;11.00;;;;;15.82;63.41;101137.88;4903287;29;45431;-67
2022/09/25 05:31:15;;;;;;;;;16.50;14.50;;;;;15.82;63.15;101133.38;4903192;29;45585;-67
2022/09/25 05:33:42;;;;;;;;;13.25;12.00;;;;;15.77;63.19;101140.81;4904255;29;45832;-67
2022/09/25 05:36:08;;;;;;;;;13.75;12.25;;;;;15.70;63.01;101137.50;4893632;29;45590;-67
2022/09/25 05:38:36;;;;;;;;;16.00;13.50;;;;;15.67;63.25;101139.44;4883207;29;45641;-67
2022/09/25 05:41:07;;;;;;;;;12.00;11.50;;;;;15.63;63.35;101145.94;4904218;29;45328;-67
2022/09/25 05:43:36;;;;;;;;;12.50;12.50;;;;;15.63;63.34;101141.41;4902642;29;46395;-67
2022/09/25 05:46:02;;;;;;;;;12.00;11.25;;;;;15.61;63.41;101131.69;4904337;29;45332;-67
2022/09/25 05:48:27;;;;;;;;;13.75;13.00;;;;;15.61;63.41;101129.84;4902367;29;45364;-67
2022/09/25 05:50:55;;;;;;;;;14.75;14.00;;;;;15.60;63.11;101133.47;4903761;29;45474;-66
2022/09/25 05:53:21;;;;;;;;;7.50;7.00;;;;;15.53;63.26;101140.97;4900645;29;45682;-66
2022/09/25 05:55:50;;;;;;;;;11.25;11.25;;;;;15.61;63.48;101147.81;4902731;29;45561;-69
2022/09/25 05:58:15;;;;;;;;;13.00;13.00;;;;;15.62;63.40;101149.56;4914195;28;45671;-69
2022/09/25 06:00:41;;;;;;;;;9.50;9.50;;;;;15.57;63.42;101147.09;4902145;29;45424;-69
2022/09/25 06:03:07;;;;;;;;;13.00;10.50;;;;;15.56;63.36;101139.97;4903367;29;46167;-69
2022/09/25 06:05:33;;;;;;;;;16.50;14.00;;;;;15.69;63.25;101154.59;4904057;29;45568;-69
2022/09/25 06:07:58;;;;;;;;;13.25;10.25;;;;;15.61;63.21;101158.59;4902952;29;45646;-69
2022/09/25 06:10:27;;;;;;;;;13.00;12.00;;;;;15.50;63.22;101149.22;4885688;29;46160;-69
2022/09/25 06:13:00;;;;;;;;;12.00;10.50;;;;;15.54;63.35;101145.41;4903458;29;45404;-69
2022/09/25 06:15:27;;;;;;;;;14.00;12.75;;;;;15.46;63.00;101133.28;4904132;29;45498;-69
2022/09/25 06:17:53;;;;;;;;;13.00;12.25;;;;;15.61;63.16;101172.03;4902610;29;45459;-69
2022/09/25 06:20:19;;;;;;;;;14.50;12.25;;;;;15.48;63.01;101153.75;4899065;29;45414;-69
2022/09/25 06:22:53;;;;;;;;;13.75;11.75;;;;;15.57;63.21;101166.81;4885112;29;47250;-67
2022/09/25 06:25:20;;;;;;;;;11.50;11.50;;;;;15.60;63.23;101175.66;4903639;29;45510;-67
2022/09/25 06:27:46;;;;;;;;;11.50;10.25;;;;;15.52;63.23;101166.16;4903463;29;45455;-67
2022/09/25 06:30:11;;;;;;;;;12.25;10.00;;;;;15.43;63.16;101154.94;4885707;29;45604;-67
2022/09/25 06:32:37;;;;;;;;;9.75;9.00;;;;;15.51;63.19;101169.78;4903418;29;45439;-67
2022/09/25 06:35:03;;;;;;;;;7.50;7.50;;;;;15.56;62.98;101185.72;4886548;28;45460;-67
2022/09/25 06:37:29;;;;;;;;;11.00;10.50;;;;;15.54;63.07;101177.69;4893228;28;45550;-67
2022/09/25 06:39:54;;;;;;;;;8.75;7.75;;;;;15.38;63.12;101163.22;4900176;29;45448;-67
2022/09/25 06:42:19;;;;;;;;;8.25;8.25;;;;;15.40;62.78;101173.91;4901583;29;47771;-66
2022/09/25 06:49:21;;;;;;;;;;;;;;;;;;;;;
2022/09/25 07:04:48;;;;;;;;;;;;;;;;;;;;;
2022/09/25 07:07:23;;;;;;;;;9.00;7.00;;;;;15.08;63.01;101150.19;4846674;29;75422;-77
2022/09/25 07:17:40;;;;;;;;;7.50;7.50;;;;;15.34;62.51;101193.91;5372263;23;46659;-77
2022/09/25 07:20:38;;;;;;;;;8.50;7.00;;;;;15.18;62.50;101170.38;4883205;29;47204;-75
2022/09/25 07:23:06;;;;;;;;;8.00;6.50;;;;;14.97;62.53;101139.94;4849162;29;45633;-76
2022/09/25 07:32:55;;;;;;;;;;;;;;;;;;;;;
2022/09/25 07:58:26;;;;;;;;;3.50;3.50;;;;;15.44;62.30;101216.75;5521409;23;46564;-80
2022/09/25 08:33:24;;;;;;;;;4.75;3.00;;;;;15.49;61.13;101192.31;5711635;23;45575;-69
2022/09/25 08:36:00;;;;;;;;;5.75;2.00;;;;;15.61;61.15;101215.09;4900524;28;45839;-67
2022/09/25 08:38:27;;;;;;;;;3.75;3.75;;;;;15.62;61.25;101198.00;4905280;29;45377;-66
2022/09/25 08:41:08;;;;;;;;;4.00;3.00;;;;;15.74;60.79;101218.97;4905449;29;45579;-66
2022/09/25 08:43:59;;;;;;;;;2.75;2.75;;;;;15.78;60.48;101230.50;4904893;29;46173;-67
2022/09/25 08:49:35;;;;;;;;;3.00;2.00;;;;;15.56;60.58;101180.31;4904694;28;45380;-66
2022/09/25 08:52:06;;;;;;;;;3.25;2.00;;;;;15.88;60.12;101221.91;4887952;29;45552;-66
2022/09/25 08:54:34;;;;;;;;;8.00;6.50;;;;;15.84;60.57;101208.69;4904652;29;45390;-66
2022/09/25 08:57:30;;;;;;;;;4.50;4.25;;;;;15.92;60.30;101220.84;4903981;28;45466;-66
2022/09/25 09:00:02;;;;;;;;;2.25;2.25;;;;;15.92;60.23;101202.00;4892989;29;45384;-66
2022/09/25 09:02:51;;;;;;;;;2.00;1.00;;;;;15.93;60.13;101201.03;4904938;29;45645;-67
2022/09/25 09:05:40;;;;;;;;;1.25;1.25;;;;;16.09;59.91;101213.78;4904145;28;45665;-66
2022/09/25 09:08:16;;;;;;;;;3.00;1.00;;;;;16.06;59.52;101200.47;4904234;28;45510;-66
2022/09/25 09:10:45;;;;;;;;;0.00;0.00;;;;;16.14;59.34;101214.44;4904869;29;45420;-66
2022/09/25 09:13:25;;;;;;;;;1.75;1.75;;;;;16.17;59.29;101222.38;4904640;29;45538;-66
2022/09/25 09:16:00;;;;;;;;;1.75;1.00;;;;;16.23;59.05;101218.50;4885283;28;48080;-66
2022/09/25 09:18:31;;;;;;;;;1.00;1.00;;;;;16.29;58.88;101219.06;4887700;29;45494;-66
2022/09/25 09:21:12;;;;;;;;;1.50;1.50;;;;;16.24;59.08;101214.88;4875928;29;45411;-67
2022/09/25 09:24:36;;;;;;;;;1.50;1.00;;;;;16.38;58.67;101220.44;4904200;29;45524;-66
2022/09/25 09:27:24;;;;;;;;;3.75;2.00;;;;;16.41;58.57;101219.41;4887972;29;45478;-66
2022/09/25 09:30:26;;;;;;;;;1.00;1.00;;;;;16.45;58.02;101221.88;4904541;29;45671;-66
2022/09/25 09:33:10;;;;;;;;;1.00;1.00;;;;;16.51;58.20;101217.16;4898058;29;45276;-68
2022/09/25 09:35:55;;;;;;;;;3.25;2.00;;;;;16.54;57.61;101225.94;4897317;28;45329;-66
2022/09/25 09:38:56;;;;;;;;;2.00;1.00;;;;;16.39;57.43;101203.34;4903704;28;45460;-66
2022/09/25 09:41:36;;;;;;;;;3.00;1.25;;;;;16.53;56.85;101212.56;4904413;29;45418;-66
2022/09/25 09:44:29;;;;;;;;;2.00;1.00;;;;;16.64;56.90;101219.16;4904442;29;45272;-66
2022/09/25 09:47:10;;;;;;;;;2.50;2.00;;;;;16.70;57.01;101222.47;4896060;28;45498;-66
2022/09/25 09:49:43;;;;;;;;;1.00;1.00;;;;;16.55;56.67;101195.34;4904185;29;45529;-66
2022/09/25 09:52:16;;;;;;;;;1.50;1.00;;;;;16.73;56.92;101216.94;4904275;29;45444;-66
2022/09/25 09:54:45;;;;;;;;;2.00;1.00;;;;;16.75;55.67;101206.94;4886966;29;45386;-66
2022/09/25 09:57:41;;;;;;;;;0.25;0.25;;;;;16.85;56.06;101209.09;4903363;28;45504;-66
2022/09/25 10:00:15;;;;;;;;;2.75;0.00;;;;;16.91;55.34;101213.34;4893755;29;46404;-64
2022/09/25 13:31:09;;;;;;;;;0.50;0.50;;;;;19.24;44.36;101140.78;4897243;29;46295;-75
2022/09/25 13:33:48;;;;;;;;;1.00;0.00;;;;;18.93;43.82;101077.75;4883466;28;45507;-74
2022/09/25 13:36:45;;;;;;;;;0.25;0.25;;;;;19.21;44.15;101127.44;4884667;29;45426;-78
2022/09/25 13:46:22;;;;;;;;;0.00;0.00;;;;;19.26;43.99;101117.19;4883289;29;45530;-75
2022/09/25 13:59:34;;;;;;;;;0.00;0.00;;;;;19.20;43.56;101077.84;4794813;29;45498;-81
2022/09/25 14:02:38;;;;;;;;;0.00;0.00;;;;;18.98;43.07;101040.47;4818295;29;45392;-76
2022/09/25 14:05:05;;;;;;;;;0.00;0.00;;;;;19.13;43.95;101067.50;4809585;29;45543;-73
2022/09/25 14:08:12;;;;;;;;;;;;;;;;;;;;;
2022/09/25 14:17:34;;;;;;;;;0.50;0.00;;;;;19.34;43.41;101082.38;4794424;29;45581;-78
2022/09/25 14:20:06;;;;;;;;;0.00;0.00;;;;;19.12;43.12;101046.84;4826674;29;45574;-78
2022/09/25 14:22:42;;;;;;;;;0.00;0.00;;;;;19.16;43.52;101049.25;4832674;29;45451;-75
2022/09/25 14:35:23;;;;;;;;;0.00;0.00;;;;;19.55;43.28;101103.66;4758336;29;45663;-75
2022/09/25 15:23:37;;;;;;;;;;;;;;;;;;;;;
2022/09/25 15:33:31;;;;;;;;;0.00;0.00;;;;;19.58;45.09;101076.38;4833849;29;45923;-74
2022/09/25 16:10:35;;;;;;;;;0.50;0.50;;;;;19.07;45.21;101057.94;5478664;23;45766;-66
2022/09/25 16:13:01;;;;;;;;;1.00;0.00;;;;;19.20;45.79;101088.69;4895895;28;45563;-67
2022/09/25 16:15:26;;;;;;;;;2.00;0.00;;;;;19.22;46.25;101092.16;4898091;29;45663;-67
2022/09/25 16:17:57;;;;;;;;;1.25;1.00;;;;;19.12;46.37;101093.69;4879689;29;45514;-72
2022/09/25 16:20:40;;;;;;;;;1.25;1.00;;;;;18.88;46.54;101063.66;4877013;28;45828;-70
2022/09/25 16:23:27;;;;;;;;;1.00;1.00;;;;;18.99;47.16;101090.03;4875356;29;45552;-69
2022/09/25 16:25:53;;;;;;;;;1.00;1.00;;;;;18.72;47.46;101060.13;4878678;29;45604;-69
2022/09/25 16:28:24;;;;;;;;;1.00;1.00;;;;;18.74;48.30;101079.81;4878858;29;45663;-70
2022/09/25 16:30:54;;;;;;;;;0.50;0.50;;;;;18.59;49.39;101049.19;4877273;29;46875;-65
2022/09/25 16:33:28;;;;;;;;;1.75;1.00;;;;;18.93;48.85;101103.91;4878795;29;45643;-66
2022/09/25 16:35:54;;;;;;;;;1.50;1.50;;;;;18.91;49.40;101116.69;4876223;29;45850;-66
2022/09/25 16:38:27;;;;;;;;;2.75;0.00;;;;;18.88;50.36;101117.75;4878513;29;45452;-66
2022/09/25 16:41:04;;;;;;;;;1.75;1.75;;;;;18.85;50.89;101115.22;4881265;29;45902;-66
2022/09/25 16:43:29;;;;;;;;;0.00;0.00;;;;;18.74;51.16;101101.44;4891310;29;45692;-66
2022/09/25 16:45:58;;;;;;;;;1.00;1.00;;;;;18.66;51.45;101099.19;4884677;29;48097;-65
2022/09/25 16:48:36;;;;;;;;;0.00;0.00;;;;;18.67;52.42;101106.38;4881381;29;45692;-66
2022/09/25 16:51:04;;;;;;;;;1.00;1.00;;;;;18.72;52.72;101108.78;4881162;29;45756;-66
2022/09/25 16:53:29;;;;;;;;;1.25;1.00;;;;;18.50;52.29;101073.09;4880893;29;45496;-66
2022/09/25 16:55:56;;;;;;;;;0.75;0.75;;;;;18.67;52.84;101107.22;4881239;29;46102;-66
2022/09/25 16:58:22;;;;;;;;;0.50;0.50;;;;;18.58;53.32;101090.72;4879873;29;45968;-66
2022/09/25 17:00:49;;;;;;;;;2.00;2.00;;;;;18.56;53.63;101103.44;4883952;29;45560;-66
2022/09/25 17:03:14;;;;;;;;;3.00;2.75;;;;;18.49;54.32;101093.00;4881812;29;45407;-66
2022/09/25 17:05:40;;;;;;;;;1.00;1.00;;;;;18.54;54.21;101106.22;4882564;29;45378;-65
2022/09/25 17:08:23;;;;;;;;;0.75;0.75;;;;;18.57;54.36;101107.88;4883934;29;45377;-65
2022/09/25 17:10:51;;;;;;;;;1.00;1.00;;;;;18.52;54.66;101111.72;4900190;28;45843;-65
2022/09/25 17:13:21;;;;;;;;;0.75;0.00;;;;;18.56;54.49;101111.53;4894906;29;46166;-66
2022/09/25 17:15:47;;;;;;;;;2.25;2.25;;;;;18.51;53.67;101109.13;4878470;29;46034;-65
2022/09/25 17:18:18;;;;;;;;;0.50;0.50;;;;;18.51;53.70;101117.25;4876064;29;45573;-65
2022/09/25 17:20:44;;;;;;;;;1.25;1.25;;;;;18.47;54.51;101111.13;4874271;29;45700;-65
2022/09/25 17:23:10;;;;;;;;;2.25;1.50;;;;;18.37;54.52;101106.38;4880649;29;45789;-65
2022/09/25 17:25:46;;;;;;;;;0.50;0.50;;;;;18.40;54.67;101112.47;4879801;28;46505;-68
2022/09/25 17:28:12;;;;;;;;;2.00;2.00;;;;;18.40;52.90;101117.00;4895503;28;45874;-65
2022/09/25 17:30:38;;;;;;;;;1.75;1.25;;;;;18.37;53.91;101122.59;4879621;29;45915;-65
2022/09/25 17:33:05;;;;;;;;;1.50;1.00;;;;;18.35;54.36;101121.81;4881516;29;45594;-65
2022/09/25 17:35:38;;;;;;;;;1.75;1.75;;;;;18.30;53.69;101124.78;4879790;29;46351;-65
2022/09/25 17:38:04;;;;;;;;;3.75;2.50;;;;;18.27;53.70;101122.25;4880547;29;45819;-65
2022/09/25 17:40:31;;;;;;;;;2.00;1.75;;;;;18.22;53.30;101113.56;4880115;29;45463;-65
2022/09/25 17:42:57;;;;;;;;;2.75;2.75;;;;;18.24;53.89;101127.84;4881835;29;45439;-65
2022/09/25 17:45:35;;;;;;;;;1.75;1.75;;;;;18.13;54.02;101113.13;4890673;29;46558;-65
2022/09/25 17:48:00;;;;;;;;;3.50;2.50;;;;;18.12;53.62;101115.91;4877221;29;45510;-68
2022/09/25 17:50:26;;;;;;;;;1.25;1.25;;;;;18.18;53.84;101136.31;4884471;29;45647;-65
2022/09/25 17:52:53;;;;;;;;;2.00;2.00;;;;;18.10;53.90;101125.94;4877250;29;45636;-66
2022/09/25 17:55:19;;;;;;;;;2.50;1.75;;;;;17.98;53.52;101110.47;4880448;29;47371;-65
2022/09/25 17:57:45;;;;;;;;;3.50;1.75;;;;;18.01;53.64;101124.66;4881192;29;45619;-65
2022/09/25 18:00:12;;;;;;;;;2.50;2.50;;;;;18.03;52.97;101133.53;4882091;29;45543;-66
2022/09/25 18:02:37;;;;;;;;;1.50;1.50;;;;;17.95;53.18;101125.84;4882177;29;45763;-65
2022/09/25 18:05:03;;;;;;;;;1.50;1.50;;;;;18.01;53.49;101138.16;4880149;29;47558;-65
2022/09/25 18:07:30;;;;;;;;;2.00;2.00;;;;;18.00;53.34;101139.09;4881645;29;45725;-65
2022/09/25 18:09:55;;;;;;;;;3.25;1.50;;;;;17.98;53.21;101134.78;4879245;28;45637;-65
2022/09/25 18:12:21;;;;;;;;;1.50;1.50;;;;;17.95;53.28;101138.50;4878135;29;45671;-66
2022/09/25 18:14:46;;;;;;;;;2.75;2.75;;;;;17.91;53.37;101132.41;4878043;29;45777;-66
2022/09/25 18:17:13;;;;;;;;;1.75;1.75;;;;;17.70;53.39;101104.75;4876453;29;47041;-65
2022/09/25 18:22:24;;;;;;;;;1.50;1.50;;;;;17.82;52.60;101113.13;4879678;29;45954;-65
2022/09/25 18:24:55;;;;;;;;;1.00;0.75;;;;;17.85;52.59;101130.00;4878092;29;46051;-65
2022/09/25 18:27:22;;;;;;;;;2.50;1.50;;;;;17.84;53.05;101128.28;4886798;29;45757;-65
2022/09/25 18:29:47;;;;;;;;;4.75;3.00;;;;;17.85;52.83;101123.75;4887248;29;45433;-65
2022/09/25 18:32:13;;;;;;;;;1.75;1.75;;;;;17.75;52.81;101118.84;4879386;29;45678;-65
2022/09/25 18:34:39;;;;;;;;;3.00;2.25;;;;;17.83;53.18;101126.53;4875550;29;46242;-65
2022/09/25 18:37:04;;;;;;;;;1.75;1.50;;;;;17.77;52.94;101119.66;4887535;29;45552;-68
2022/09/25 18:39:30;;;;;;;;;2.75;2.00;;;;;17.78;53.02;101124.09;4883035;28;45660;-67
2022/09/25 18:41:55;;;;;;;;;2.75;2.75;;;;;17.83;52.85;101131.06;4891504;28;45497;-66
2022/09/25 18:44:22;;;;;;;;;2.50;2.50;;;;;17.72;52.94;101112.75;4875276;29;52308;-65
2022/09/25 18:46:48;;;;;;;;;2.50;2.00;;;;;17.78;53.28;101129.50;4877604;29;45593;-65
2022/09/25 18:49:13;;;;;;;;;4.00;3.00;;;;;17.71;53.42;101117.31;4878503;29;45806;-66
2022/09/25 18:51:39;;;;;;;;;2.25;2.25;;;;;17.78;52.65;101132.19;4892236;28;45819;-66
2022/09/25 18:54:04;;;;;;;;;1.25;1.25;;;;;17.76;53.03;101134.09;4874675;29;47003;-66
2022/09/25 18:56:33;;;;;;;;;2.00;1.50;;;;;17.71;53.06;101130.81;4881796;29;45517;-66
2022/09/25 18:58:58;;;;;;;;;1.25;1.25;;;;;17.73;52.77;101136.97;4880475;29;45602;-66